sensor_id;sensor_type;location;lat;lon;timestamp;P1;durP1;ratioP1;P2;durP2;ratioP2
9924;SDS011;5001;51.674;7.868;2023-04-21T00:01:53;33.30;;;25.33;;
9924;SDS011;5001;51.674;7.868;2023-04-21T00:04:20;31.63;;;25.23;;
9924;SDS011;5001;51.674;7.868;2023-04-21T00:06:47;33.83;;;25.77;;
9924;SDS011;5001;51.674;7.868;2023-04-21T00:09:16;35.50;;;26.90;;
9924;SDS011;5001;51.674;7.868;2023-04-21T00:11:44;33.83;;;26.10;;
9924;SDS011;5001;51.674;7.868;2023-04-21T00:14:11;36.77;;;26.27;;
9924;SDS011;5001;51.674;7.868;2023-04-21T00:16:38;32.07;;;25.00;;
9924;SDS011;5001;51.674;7.868;2023-04-21T00:19:07;32.13;;;25.50;;
9924;SDS011;5001;51.674;7.868;2023-04-21T00:21:34;35.13;;;25.40;;
9924;SDS011;5001;51.674;7.868;2023-04-21T00:24:01;33.07;;;26.43;;
9924;SDS011;5001;51.674;7.868;2023-04-21T00:26:28;35.30;;;27.13;;
9924;SDS011;5001;51.674;7.868;2023-04-21T00:28:56;36.53;;;28.03;;
9924;SDS011;5001;51.674;7.868;2023-04-21T00:31:23;35.07;;;26.53;;
9924;SDS011;5001;51.674;7.868;2023-04-21T00:33:50;34.27;;;26.57;;
9924;SDS011;5001;51.674;7.868;2023-04-21T00:36:19;32.07;;;25.77;;
9924;SDS011;5001;51.674;7.868;2023-04-21T00:38:46;36.40;;;26.63;;
9924;SDS011;5001;51.674;7.868;2023-04-21T00:41:13;33.47;;;26.50;;
9924;SDS011;5001;51.674;7.868;2023-04-21T00:46:29;33.27;;;25.43;;
9924;SDS011;5001;51.674;7.868;2023-04-21T00:48:57;33.83;;;26.03;;
9924;SDS011;5001;51.674;7.868;2023-04-21T00:51:26;34.33;;;26.97;;
9924;SDS011;5001;51.674;7.868;2023-04-21T00:53:54;33.87;;;25.67;;
9924;SDS011;5001;51.674;7.868;2023-04-21T00:56:22;34.43;;;26.20;;
9924;SDS011;5001;51.674;7.868;2023-04-21T00:58:50;31.40;;;25.73;;
9924;SDS011;5001;51.674;7.868;2023-04-21T01:01:19;34.67;;;24.93;;
9924;SDS011;5001;51.674;7.868;2023-04-21T01:03:47;42.37;;;26.27;;
9924;SDS011;5001;51.674;7.868;2023-04-21T01:06:16;31.13;;;25.57;;
9924;SDS011;5001;51.674;7.868;2023-04-21T01:08:44;34.20;;;26.80;;
9924;SDS011;5001;51.674;7.868;2023-04-21T01:11:14;35.10;;;26.03;;
9924;SDS011;5001;51.674;7.868;2023-04-21T01:13:41;35.67;;;27.10;;
9924;SDS011;5001;51.674;7.868;2023-04-21T01:16:11;33.63;;;26.33;;
9924;SDS011;5001;51.674;7.868;2023-04-21T01:18:42;34.43;;;27.40;;
9924;SDS011;5001;51.674;7.868;2023-04-21T01:21:11;35.87;;;26.43;;
9924;SDS011;5001;51.674;7.868;2023-04-21T01:23:39;34.10;;;26.97;;
9924;SDS011;5001;51.674;7.868;2023-04-21T01:26:07;33.90;;;27.00;;
9924;SDS011;5001;51.674;7.868;2023-04-21T01:28:35;32.33;;;26.87;;
9924;SDS011;5001;51.674;7.868;2023-04-21T01:31:03;32.17;;;27.77;;
9924;SDS011;5001;51.674;7.868;2023-04-21T01:33:30;33.07;;;27.23;;
9924;SDS011;5001;51.674;7.868;2023-04-21T01:35:57;33.60;;;27.40;;
9924;SDS011;5001;51.674;7.868;2023-04-21T01:38:26;35.57;;;27.40;;
9924;SDS011;5001;51.674;7.868;2023-04-21T01:40:57;34.67;;;27.33;;
9924;SDS011;5001;51.674;7.868;2023-04-21T01:43:26;31.67;;;26.80;;
9924;SDS011;5001;51.674;7.868;2023-04-21T01:45:53;34.53;;;27.87;;
9924;SDS011;5001;51.674;7.868;2023-04-21T01:48:20;38.20;;;28.30;;
9924;SDS011;5001;51.674;7.868;2023-04-21T01:50:46;35.83;;;27.67;;
9924;SDS011;5001;51.674;7.868;2023-04-21T01:53:13;35.37;;;28.93;;
9924;SDS011;5001;51.674;7.868;2023-04-21T01:55:41;34.93;;;28.40;;
9924;SDS011;5001;51.674;7.868;2023-04-21T01:58:08;33.97;;;26.73;;
9924;SDS011;5001;51.674;7.868;2023-04-21T02:00:35;33.90;;;27.03;;
9924;SDS011;5001;51.674;7.868;2023-04-21T02:03:03;31.53;;;26.87;;
9924;SDS011;5001;51.674;7.868;2023-04-21T02:05:30;33.40;;;26.40;;
9924;SDS011;5001;51.674;7.868;2023-04-21T02:07:57;35.50;;;26.80;;
9924;SDS011;5001;51.674;7.868;2023-04-21T02:10:24;33.97;;;27.30;;
9924;SDS011;5001;51.674;7.868;2023-04-21T02:12:51;35.63;;;27.77;;
9924;SDS011;5001;51.674;7.868;2023-04-21T02:15:18;34.17;;;26.87;;
9924;SDS011;5001;51.674;7.868;2023-04-21T02:17:45;33.23;;;26.27;;
9924;SDS011;5001;51.674;7.868;2023-04-21T02:20:12;33.07;;;25.70;;
9924;SDS011;5001;51.674;7.868;2023-04-21T02:22:39;34.20;;;27.80;;
9924;SDS011;5001;51.674;7.868;2023-04-21T02:25:06;34.17;;;26.23;;
9924;SDS011;5001;51.674;7.868;2023-04-21T02:27:34;32.83;;;26.23;;
9924;SDS011;5001;51.674;7.868;2023-04-21T02:30:00;33.60;;;26.83;;
9924;SDS011;5001;51.674;7.868;2023-04-21T02:32:27;32.10;;;25.43;;
9924;SDS011;5001;51.674;7.868;2023-04-21T02:34:55;34.57;;;27.60;;
9924;SDS011;5001;51.674;7.868;2023-04-21T02:37:22;32.73;;;26.07;;
9924;SDS011;5001;51.674;7.868;2023-04-21T02:39:51;32.07;;;26.47;;
9924;SDS011;5001;51.674;7.868;2023-04-21T02:42:18;35.27;;;25.90;;
9924;SDS011;5001;51.674;7.868;2023-04-21T02:44:46;30.00;;;24.50;;
9924;SDS011;5001;51.674;7.868;2023-04-21T02:47:14;35.77;;;25.57;;
9924;SDS011;5001;51.674;7.868;2023-04-21T02:49:44;31.50;;;25.00;;
9924;SDS011;5001;51.674;7.868;2023-04-21T02:52:11;33.30;;;25.67;;
9924;SDS011;5001;51.674;7.868;2023-04-21T02:54:38;30.67;;;24.57;;
9924;SDS011;5001;51.674;7.868;2023-04-21T02:57:05;36.23;;;25.37;;
9924;SDS011;5001;51.674;7.868;2023-04-21T02:59:32;32.10;;;24.13;;
9924;SDS011;5001;51.674;7.868;2023-04-21T03:01:59;29.77;;;23.97;;
9924;SDS011;5001;51.674;7.868;2023-04-21T03:04:26;33.97;;;25.93;;
9924;SDS011;5001;51.674;7.868;2023-04-21T03:06:53;33.27;;;26.20;;
9924;SDS011;5001;51.674;7.868;2023-04-21T03:09:20;32.90;;;27.03;;
9924;SDS011;5001;51.674;7.868;2023-04-21T03:11:47;32.67;;;24.30;;
9924;SDS011;5001;51.674;7.868;2023-04-21T03:14:14;33.40;;;26.07;;
9924;SDS011;5001;51.674;7.868;2023-04-21T03:16:41;36.00;;;26.97;;
9924;SDS011;5001;51.674;7.868;2023-04-21T03:19:10;32.23;;;25.93;;
9924;SDS011;5001;51.674;7.868;2023-04-21T03:21:37;31.70;;;25.03;;
9924;SDS011;5001;51.674;7.868;2023-04-21T03:24:05;34.07;;;26.50;;
9924;SDS011;5001;51.674;7.868;2023-04-21T03:26:33;32.30;;;25.93;;
9924;SDS011;5001;51.674;7.868;2023-04-21T03:28:59;34.43;;;25.73;;
9924;SDS011;5001;51.674;7.868;2023-04-21T03:31:27;36.97;;;27.07;;
9924;SDS011;5001;51.674;7.868;2023-04-21T03:33:55;32.37;;;24.30;;
9924;SDS011;5001;51.674;7.868;2023-04-21T03:36:22;34.00;;;24.93;;
9924;SDS011;5001;51.674;7.868;2023-04-21T03:38:49;28.47;;;23.13;;
9924;SDS011;5001;51.674;7.868;2023-04-21T03:41:16;33.00;;;24.87;;
9924;SDS011;5001;51.674;7.868;2023-04-21T03:43:43;32.27;;;24.73;;
9924;SDS011;5001;51.674;7.868;2023-04-21T03:46:20;31.97;;;24.60;;
9924;SDS011;5001;51.674;7.868;2023-04-21T03:48:47;32.53;;;23.60;;
9924;SDS011;5001;51.674;7.868;2023-04-21T03:51:14;31.43;;;24.00;;
9924;SDS011;5001;51.674;7.868;2023-04-21T03:53:41;34.10;;;23.63;;
9924;SDS011;5001;51.674;7.868;2023-04-21T03:56:08;31.13;;;23.10;;
9924;SDS011;5001;51.674;7.868;2023-04-21T03:58:35;32.67;;;23.97;;
9924;SDS011;5001;51.674;7.868;2023-04-21T04:01:05;32.30;;;25.40;;
9924;SDS011;5001;51.674;7.868;2023-04-21T04:03:33;31.30;;;23.43;;
9924;SDS011;5001;51.674;7.868;2023-04-21T04:06:00;27.80;;;22.60;;
9924;SDS011;5001;51.674;7.868;2023-04-21T04:08:29;32.43;;;23.63;;
9924;SDS011;5001;51.674;7.868;2023-04-21T04:10:56;35.13;;;22.87;;
9924;SDS011;5001;51.674;7.868;2023-04-21T04:13:24;32.27;;;24.03;;
9924;SDS011;5001;51.674;7.868;2023-04-21T04:15:52;31.43;;;24.03;;
9924;SDS011;5001;51.674;7.868;2023-04-21T04:18:20;31.63;;;23.47;;
9924;SDS011;5001;51.674;7.868;2023-04-21T04:20:47;32.57;;;23.50;;
9924;SDS011;5001;51.674;7.868;2023-04-21T04:23:14;34.97;;;24.17;;
9924;SDS011;5001;51.674;7.868;2023-04-21T04:25:41;30.63;;;22.33;;
9924;SDS011;5001;51.674;7.868;2023-04-21T04:28:08;31.33;;;23.33;;
9924;SDS011;5001;51.674;7.868;2023-04-21T04:30:35;31.77;;;24.03;;
9924;SDS011;5001;51.674;7.868;2023-04-21T04:33:02;30.10;;;23.17;;
9924;SDS011;5001;51.674;7.868;2023-04-21T04:35:30;31.80;;;23.33;;
9924;SDS011;5001;51.674;7.868;2023-04-21T04:37:57;31.00;;;23.17;;
9924;SDS011;5001;51.674;7.868;2023-04-21T04:40:24;30.27;;;23.23;;
9924;SDS011;5001;51.674;7.868;2023-04-21T04:42:54;30.17;;;22.30;;
9924;SDS011;5001;51.674;7.868;2023-04-21T04:45:21;31.63;;;22.83;;
9924;SDS011;5001;51.674;7.868;2023-04-21T04:47:48;30.53;;;22.13;;
9924;SDS011;5001;51.674;7.868;2023-04-21T04:50:15;27.47;;;22.10;;
9924;SDS011;5001;51.674;7.868;2023-04-21T04:52:42;30.33;;;22.97;;
9924;SDS011;5001;51.674;7.868;2023-04-21T04:55:12;32.67;;;22.70;;
9924;SDS011;5001;51.674;7.868;2023-04-21T04:57:39;29.47;;;21.90;;
9924;SDS011;5001;51.674;7.868;2023-04-21T05:00:07;28.43;;;22.17;;
9924;SDS011;5001;51.674;7.868;2023-04-21T05:02:39;34.07;;;22.43;;
9924;SDS011;5001;51.674;7.868;2023-04-21T05:05:07;31.67;;;21.93;;
9924;SDS011;5001;51.674;7.868;2023-04-21T05:07:34;31.37;;;21.33;;
9924;SDS011;5001;51.674;7.868;2023-04-21T05:10:02;29.97;;;22.60;;
9924;SDS011;5001;51.674;7.868;2023-04-21T05:12:30;29.47;;;22.67;;
9924;SDS011;5001;51.674;7.868;2023-04-21T05:14:59;28.17;;;20.97;;
9924;SDS011;5001;51.674;7.868;2023-04-21T05:17:26;27.77;;;20.73;;
9924;SDS011;5001;51.674;7.868;2023-04-21T05:19:56;30.67;;;21.93;;
9924;SDS011;5001;51.674;7.868;2023-04-21T05:22:23;28.67;;;21.80;;
9924;SDS011;5001;51.674;7.868;2023-04-21T05:24:51;31.97;;;22.53;;
9924;SDS011;5001;51.674;7.868;2023-04-21T05:27:18;29.40;;;20.90;;
9924;SDS011;5001;51.674;7.868;2023-04-21T05:29:45;29.40;;;21.93;;
9924;SDS011;5001;51.674;7.868;2023-04-21T05:32:12;27.93;;;21.20;;
9924;SDS011;5001;51.674;7.868;2023-04-21T05:34:39;28.90;;;21.43;;
9924;SDS011;5001;51.674;7.868;2023-04-21T05:37:08;28.07;;;21.03;;
9924;SDS011;5001;51.674;7.868;2023-04-21T05:39:37;27.77;;;20.33;;
9924;SDS011;5001;51.674;7.868;2023-04-21T05:42:04;25.80;;;20.87;;
9924;SDS011;5001;51.674;7.868;2023-04-21T05:44:32;27.77;;;21.40;;
9924;SDS011;5001;51.674;7.868;2023-04-21T05:46:59;26.80;;;20.77;;
9924;SDS011;5001;51.674;7.868;2023-04-21T05:49:25;27.43;;;21.20;;
9924;SDS011;5001;51.674;7.868;2023-04-21T05:51:52;26.80;;;20.83;;
9924;SDS011;5001;51.674;7.868;2023-04-21T05:54:19;29.83;;;21.63;;
9924;SDS011;5001;51.674;7.868;2023-04-21T05:56:47;31.67;;;21.93;;
9924;SDS011;5001;51.674;7.868;2023-04-21T05:59:14;26.30;;;20.77;;
9924;SDS011;5001;51.674;7.868;2023-04-21T06:01:41;27.70;;;20.63;;
9924;SDS011;5001;51.674;7.868;2023-04-21T06:04:09;30.93;;;22.50;;
9924;SDS011;5001;51.674;7.868;2023-04-21T06:06:36;29.53;;;22.10;;
9924;SDS011;5001;51.674;7.868;2023-04-21T06:09:03;28.47;;;20.90;;
9924;SDS011;5001;51.674;7.868;2023-04-21T06:11:31;29.53;;;20.93;;
9924;SDS011;5001;51.674;7.868;2023-04-21T06:13:58;28.33;;;21.47;;
9924;SDS011;5001;51.674;7.868;2023-04-21T06:16:27;29.90;;;22.07;;
9924;SDS011;5001;51.674;7.868;2023-04-21T06:18:54;28.37;;;21.43;;
9924;SDS011;5001;51.674;7.868;2023-04-21T06:21:24;28.67;;;20.77;;
9924;SDS011;5001;51.674;7.868;2023-04-21T06:23:51;24.77;;;20.13;;
9924;SDS011;5001;51.674;7.868;2023-04-21T06:26:18;27.50;;;20.10;;
9924;SDS011;5001;51.674;7.868;2023-04-21T06:28:45;28.37;;;21.57;;
9924;SDS011;5001;51.674;7.868;2023-04-21T06:31:12;24.00;;;19.80;;
9924;SDS011;5001;51.674;7.868;2023-04-21T06:33:41;25.20;;;19.20;;
9924;SDS011;5001;51.674;7.868;2023-04-21T06:36:08;25.87;;;20.43;;
9924;SDS011;5001;51.674;7.868;2023-04-21T06:38:35;28.27;;;21.40;;
9924;SDS011;5001;51.674;7.868;2023-04-21T06:41:05;29.30;;;20.83;;
9924;SDS011;5001;51.674;7.868;2023-04-21T06:43:32;25.00;;;20.30;;
9924;SDS011;5001;51.674;7.868;2023-04-21T06:45:58;28.40;;;20.97;;
9924;SDS011;5001;51.674;7.868;2023-04-21T06:48:26;26.57;;;20.47;;
9924;SDS011;5001;51.674;7.868;2023-04-21T06:50:55;26.27;;;20.47;;
9924;SDS011;5001;51.674;7.868;2023-04-21T06:53:22;25.87;;;19.33;;
9924;SDS011;5001;51.674;7.868;2023-04-21T06:55:49;26.93;;;19.40;;
9924;SDS011;5001;51.674;7.868;2023-04-21T06:58:16;26.37;;;19.07;;
9924;SDS011;5001;51.674;7.868;2023-04-21T07:00:46;26.73;;;20.93;;
9924;SDS011;5001;51.674;7.868;2023-04-21T07:03:13;30.27;;;19.70;;
9924;SDS011;5001;51.674;7.868;2023-04-21T07:05:41;26.60;;;19.80;;
9924;SDS011;5001;51.674;7.868;2023-04-21T07:08:08;23.83;;;19.10;;
9924;SDS011;5001;51.674;7.868;2023-04-21T07:10:35;24.53;;;18.93;;
9924;SDS011;5001;51.674;7.868;2023-04-21T07:13:02;23.53;;;18.70;;
9924;SDS011;5001;51.674;7.868;2023-04-21T07:15:29;27.47;;;19.17;;
9924;SDS011;5001;51.674;7.868;2023-04-21T07:17:56;23.27;;;18.20;;
9924;SDS011;5001;51.674;7.868;2023-04-21T07:20:24;28.70;;;19.73;;
9924;SDS011;5001;51.674;7.868;2023-04-21T07:22:51;26.17;;;18.80;;
9924;SDS011;5001;51.674;7.868;2023-04-21T07:25:18;26.00;;;18.83;;
9924;SDS011;5001;51.674;7.868;2023-04-21T07:27:45;24.97;;;19.40;;
9924;SDS011;5001;51.674;7.868;2023-04-21T07:30:12;27.07;;;19.40;;
9924;SDS011;5001;51.674;7.868;2023-04-21T07:32:39;24.10;;;19.53;;
9924;SDS011;5001;51.674;7.868;2023-04-21T07:35:06;28.13;;;19.97;;
9924;SDS011;5001;51.674;7.868;2023-04-21T07:37:33;31.97;;;19.40;;
9924;SDS011;5001;51.674;7.868;2023-04-21T07:40:00;27.77;;;19.00;;
9924;SDS011;5001;51.674;7.868;2023-04-21T07:42:27;25.57;;;19.27;;
9924;SDS011;5001;51.674;7.868;2023-04-21T07:44:54;27.13;;;19.33;;
9924;SDS011;5001;51.674;7.868;2023-04-21T07:47:22;23.80;;;18.87;;
9924;SDS011;5001;51.674;7.868;2023-04-21T07:49:50;24.93;;;19.13;;
9924;SDS011;5001;51.674;7.868;2023-04-21T07:52:17;24.70;;;19.37;;
9924;SDS011;5001;51.674;7.868;2023-04-21T07:54:44;26.87;;;18.80;;
9924;SDS011;5001;51.674;7.868;2023-04-21T07:57:10;27.87;;;19.87;;
9924;SDS011;5001;51.674;7.868;2023-04-21T07:59:37;27.00;;;19.10;;
9924;SDS011;5001;51.674;7.868;2023-04-21T08:02:05;23.40;;;17.90;;
9924;SDS011;5001;51.674;7.868;2023-04-21T08:04:32;23.83;;;18.25;;
9924;SDS011;5001;51.674;7.868;2023-04-21T08:06:59;24.45;;;17.85;;
9924;SDS011;5001;51.674;7.868;2023-04-21T08:09:27;21.80;;;17.20;;
9924;SDS011;5001;51.674;7.868;2023-04-21T08:11:54;22.90;;;18.42;;
9924;SDS011;5001;51.674;7.868;2023-04-21T08:14:22;24.13;;;18.20;;
9924;SDS011;5001;51.674;7.868;2023-04-21T08:16:49;24.13;;;18.30;;
9924;SDS011;5001;51.674;7.868;2023-04-21T08:19:16;23.75;;;17.52;;
9924;SDS011;5001;51.674;7.868;2023-04-21T08:21:44;20.90;;;17.48;;
9924;SDS011;5001;51.674;7.868;2023-04-21T08:24:10;23.45;;;18.48;;
9924;SDS011;5001;51.674;7.868;2023-04-21T08:26:37;22.50;;;17.88;;
9924;SDS011;5001;51.674;7.868;2023-04-21T08:29:05;23.50;;;18.42;;
9924;SDS011;5001;51.674;7.868;2023-04-21T08:31:35;23.20;;;18.20;;
9924;SDS011;5001;51.674;7.868;2023-04-21T08:34:02;22.10;;;18.60;;
9924;SDS011;5001;51.674;7.868;2023-04-21T08:36:30;26.47;;;20.13;;
9924;SDS011;5001;51.674;7.868;2023-04-21T08:38:57;22.23;;;17.40;;
9924;SDS011;5001;51.674;7.868;2023-04-21T08:41:25;25.77;;;18.33;;
9924;SDS011;5001;51.674;7.868;2023-04-21T08:43:52;23.48;;;17.58;;
9924;SDS011;5001;51.674;7.868;2023-04-21T08:46:19;20.97;;;18.07;;
9924;SDS011;5001;51.674;7.868;2023-04-21T08:48:48;25.67;;;17.60;;
9924;SDS011;5001;51.674;7.868;2023-04-21T08:51:22;23.65;;;18.30;;
9924;SDS011;5001;51.674;7.868;2023-04-21T08:53:56;26.33;;;18.30;;
9924;SDS011;5001;51.674;7.868;2023-04-21T08:56:23;25.98;;;17.30;;
9924;SDS011;5001;51.674;7.868;2023-04-21T08:58:52;19.73;;;17.25;;
9924;SDS011;5001;51.674;7.868;2023-04-21T09:01:19;26.10;;;19.40;;
9924;SDS011;5001;51.674;7.868;2023-04-21T09:03:46;24.48;;;17.80;;
9924;SDS011;5001;51.674;7.868;2023-04-21T09:06:13;20.95;;;17.38;;
9924;SDS011;5001;51.674;7.868;2023-04-21T09:08:41;24.60;;;19.08;;
9924;SDS011;5001;51.674;7.868;2023-04-21T09:11:12;21.38;;;16.73;;
9924;SDS011;5001;51.674;7.868;2023-04-21T09:13:40;22.83;;;18.27;;
9924;SDS011;5001;51.674;7.868;2023-04-21T09:16:16;21.73;;;17.42;;
9924;SDS011;5001;51.674;7.868;2023-04-21T09:18:46;31.35;;;17.65;;
9924;SDS011;5001;51.674;7.868;2023-04-21T09:21:14;22.88;;;18.00;;
9924;SDS011;5001;51.674;7.868;2023-04-21T09:23:46;23.63;;;17.65;;
9924;SDS011;5001;51.674;7.868;2023-04-21T09:26:14;21.30;;;16.23;;
9924;SDS011;5001;51.674;7.868;2023-04-21T09:28:43;23.65;;;17.25;;
9924;SDS011;5001;51.674;7.868;2023-04-21T09:31:11;20.55;;;16.85;;
9924;SDS011;5001;51.674;7.868;2023-04-21T09:33:49;24.90;;;17.70;;
9924;SDS011;5001;51.674;7.868;2023-04-21T09:36:22;23.77;;;18.00;;
9924;SDS011;5001;51.674;7.868;2023-04-21T09:41:44;20.10;;;17.23;;
9924;SDS011;5001;51.674;7.868;2023-04-21T09:44:11;21.45;;;18.38;;
9924;SDS011;5001;51.674;7.868;2023-04-21T09:46:39;24.10;;;16.65;;
9924;SDS011;5001;51.674;7.868;2023-04-21T09:49:10;21.88;;;17.42;;
9924;SDS011;5001;51.674;7.868;2023-04-21T09:51:39;21.95;;;17.92;;
9924;SDS011;5001;51.674;7.868;2023-04-21T09:54:14;23.35;;;17.67;;
9924;SDS011;5001;51.674;7.868;2023-04-21T09:56:56;25.92;;;18.80;;
9924;SDS011;5001;51.674;7.868;2023-04-21T09:59:37;22.95;;;18.63;;
9924;SDS011;5001;51.674;7.868;2023-04-21T10:02:10;22.75;;;18.23;;
9924;SDS011;5001;51.674;7.868;2023-04-21T10:04:39;19.85;;;17.25;;
9924;SDS011;5001;51.674;7.868;2023-04-21T10:07:08;24.63;;;18.38;;
9924;SDS011;5001;51.674;7.868;2023-04-21T10:09:44;21.05;;;16.60;;
9924;SDS011;5001;51.674;7.868;2023-04-21T10:12:13;21.55;;;16.83;;
9924;SDS011;5001;51.674;7.868;2023-04-21T10:14:41;22.85;;;16.98;;
9924;SDS011;5001;51.674;7.868;2023-04-21T10:17:08;22.58;;;17.52;;
9924;SDS011;5001;51.674;7.868;2023-04-21T10:19:37;22.50;;;16.75;;
9924;SDS011;5001;51.674;7.868;2023-04-21T10:22:30;21.30;;;16.33;;
9924;SDS011;5001;51.674;7.868;2023-04-21T10:24:59;19.50;;;16.38;;
9924;SDS011;5001;51.674;7.868;2023-04-21T10:27:34;20.45;;;15.32;;
9924;SDS011;5001;51.674;7.868;2023-04-21T10:30:21;21.98;;;15.52;;
9924;SDS011;5001;51.674;7.868;2023-04-21T10:33:01;17.77;;;15.23;;
9924;SDS011;5001;51.674;7.868;2023-04-21T10:38:33;17.33;;;14.15;;
9924;SDS011;5001;51.674;7.868;2023-04-21T10:44:01;18.35;;;14.85;;
9924;SDS011;5001;51.674;7.868;2023-04-21T10:46:48;19.15;;;15.40;;
9924;SDS011;5001;51.674;7.868;2023-04-21T10:49:24;19.23;;;14.35;;
9924;SDS011;5001;51.674;7.868;2023-04-21T10:56:53;19.35;;;15.38;;
9924;SDS011;5001;51.674;7.868;2023-04-21T10:59:21;20.55;;;15.27;;
9924;SDS011;5001;51.674;7.868;2023-04-21T11:01:49;19.65;;;15.57;;
9924;SDS011;5001;51.674;7.868;2023-04-21T11:04:16;18.73;;;13.75;;
9924;SDS011;5001;51.674;7.868;2023-04-21T11:07:04;18.60;;;15.05;;
9924;SDS011;5001;51.674;7.868;2023-04-21T11:09:34;18.55;;;14.18;;
9924;SDS011;5001;51.674;7.868;2023-04-21T11:12:07;16.27;;;14.30;;
9924;SDS011;5001;51.674;7.868;2023-04-21T11:14:39;20.25;;;14.77;;
9924;SDS011;5001;51.674;7.868;2023-04-21T11:17:25;17.20;;;14.15;;
9924;SDS011;5001;51.674;7.868;2023-04-21T11:19:54;17.33;;;14.77;;
9924;SDS011;5001;51.674;7.868;2023-04-21T11:22:23;21.58;;;15.40;;
9924;SDS011;5001;51.674;7.868;2023-04-21T11:24:55;19.38;;;15.57;;
9924;SDS011;5001;51.674;7.868;2023-04-21T11:27:25;17.50;;;15.23;;
9924;SDS011;5001;51.674;7.868;2023-04-21T11:29:53;19.92;;;15.68;;
9924;SDS011;5001;51.674;7.868;2023-04-21T11:32:20;18.65;;;15.00;;
9924;SDS011;5001;51.674;7.868;2023-04-21T11:34:47;17.65;;;14.05;;
9924;SDS011;5001;51.674;7.868;2023-04-21T11:37:15;18.83;;;14.77;;
9924;SDS011;5001;51.674;7.868;2023-04-21T11:39:46;17.65;;;13.55;;
9924;SDS011;5001;51.674;7.868;2023-04-21T11:42:19;17.67;;;12.93;;
9924;SDS011;5001;51.674;7.868;2023-04-21T11:44:48;18.88;;;13.05;;
9924;SDS011;5001;51.674;7.868;2023-04-21T11:47:15;15.30;;;12.82;;
9924;SDS011;5001;51.674;7.868;2023-04-21T11:49:49;15.20;;;12.38;;
9924;SDS011;5001;51.674;7.868;2023-04-21T11:52:22;17.00;;;12.43;;
9924;SDS011;5001;51.674;7.868;2023-04-21T11:55:00;16.73;;;13.05;;
9924;SDS011;5001;51.674;7.868;2023-04-21T11:57:29;16.83;;;11.65;;
9924;SDS011;5001;51.674;7.868;2023-04-21T11:59:58;19.45;;;12.27;;
9924;SDS011;5001;51.674;7.868;2023-04-21T12:02:30;14.60;;;11.30;;
9924;SDS011;5001;51.674;7.868;2023-04-21T12:05:02;14.05;;;12.48;;
9924;SDS011;5001;51.674;7.868;2023-04-21T12:07:45;16.15;;;11.50;;
9924;SDS011;5001;51.674;7.868;2023-04-21T12:10:14;14.95;;;10.45;;
9924;SDS011;5001;51.674;7.868;2023-04-21T12:12:43;13.40;;;11.05;;
9924;SDS011;5001;51.674;7.868;2023-04-21T12:15:12;15.65;;;11.00;;
9924;SDS011;5001;51.674;7.868;2023-04-21T12:17:48;13.02;;;11.07;;
9924;SDS011;5001;51.674;7.868;2023-04-21T12:20:17;14.85;;;11.38;;
9924;SDS011;5001;51.674;7.868;2023-04-21T12:22:45;20.08;;;12.65;;
9924;SDS011;5001;51.674;7.868;2023-04-21T12:25:13;17.70;;;11.43;;
9924;SDS011;5001;51.674;7.868;2023-04-21T12:27:50;14.10;;;11.68;;
9924;SDS011;5001;51.674;7.868;2023-04-21T12:30:18;17.27;;;12.20;;
9924;SDS011;5001;51.674;7.868;2023-04-21T12:32:46;16.70;;;14.07;;
9924;SDS011;5001;51.674;7.868;2023-04-21T12:35:13;16.70;;;13.75;;
9924;SDS011;5001;51.674;7.868;2023-04-21T12:37:41;18.90;;;13.38;;
9924;SDS011;5001;51.674;7.868;2023-04-21T12:40:08;18.75;;;14.48;;
9924;SDS011;5001;51.674;7.868;2023-04-21T12:42:35;17.00;;;14.45;;
9924;SDS011;5001;51.674;7.868;2023-04-21T12:45:04;18.23;;;15.85;;
9924;SDS011;5001;51.674;7.868;2023-04-21T12:47:32;19.42;;;14.50;;
9924;SDS011;5001;51.674;7.868;2023-04-21T12:49:59;21.45;;;14.65;;
9924;SDS011;5001;51.674;7.868;2023-04-21T12:52:26;18.40;;;15.10;;
9924;SDS011;5001;51.674;7.868;2023-04-21T12:54:53;18.75;;;14.55;;
9924;SDS011;5001;51.674;7.868;2023-04-21T12:57:20;18.15;;;14.60;;
9924;SDS011;5001;51.674;7.868;2023-04-21T12:59:47;18.52;;;14.90;;
9924;SDS011;5001;51.674;7.868;2023-04-21T13:02:14;20.67;;;16.98;;
9924;SDS011;5001;51.674;7.868;2023-04-21T13:04:42;17.05;;;14.32;;
9924;SDS011;5001;51.674;7.868;2023-04-21T13:07:09;20.02;;;15.55;;
9924;SDS011;5001;51.674;7.868;2023-04-21T13:09:37;17.75;;;15.07;;
9924;SDS011;5001;51.674;7.868;2023-04-21T13:12:04;22.67;;;16.08;;
9924;SDS011;5001;51.674;7.868;2023-04-21T13:14:31;20.67;;;16.15;;
9924;SDS011;5001;51.674;7.868;2023-04-21T13:16:58;20.08;;;16.40;;
9924;SDS011;5001;51.674;7.868;2023-04-21T13:19:25;22.35;;;17.50;;
9924;SDS011;5001;51.674;7.868;2023-04-21T13:21:54;32.60;;;25.73;;
9924;SDS011;5001;51.674;7.868;2023-04-21T13:24:21;21.55;;;17.45;;
9924;SDS011;5001;51.674;7.868;2023-04-21T13:26:48;21.52;;;16.50;;
9924;SDS011;5001;51.674;7.868;2023-04-21T13:29:15;21.83;;;16.10;;
9924;SDS011;5001;51.674;7.868;2023-04-21T13:31:42;24.45;;;18.88;;
9924;SDS011;5001;51.674;7.868;2023-04-21T13:34:09;19.33;;;15.55;;
9924;SDS011;5001;51.674;7.868;2023-04-21T13:36:36;21.60;;;15.95;;
9924;SDS011;5001;51.674;7.868;2023-04-21T13:39:07;21.38;;;16.40;;
9924;SDS011;5001;51.674;7.868;2023-04-21T13:41:35;20.70;;;15.43;;
9924;SDS011;5001;51.674;7.868;2023-04-21T13:44:02;22.30;;;15.93;;
9924;SDS011;5001;51.674;7.868;2023-04-21T13:46:29;17.48;;;15.25;;
9924;SDS011;5001;51.674;7.868;2023-04-21T13:48:57;22.08;;;15.80;;
9924;SDS011;5001;51.674;7.868;2023-04-21T13:51:24;20.58;;;15.30;;
9924;SDS011;5001;51.674;7.868;2023-04-21T13:53:52;18.70;;;15.88;;
9924;SDS011;5001;51.674;7.868;2023-04-21T13:56:19;20.38;;;14.85;;
9924;SDS011;5001;51.674;7.868;2023-04-21T13:58:46;18.75;;;14.90;;
9924;SDS011;5001;51.674;7.868;2023-04-21T14:01:13;20.98;;;14.65;;
9924;SDS011;5001;51.674;7.868;2023-04-21T14:03:41;20.33;;;16.15;;
9924;SDS011;5001;51.674;7.868;2023-04-21T14:06:08;24.60;;;14.98;;
9924;SDS011;5001;51.674;7.868;2023-04-21T14:08:35;19.05;;;15.77;;
9924;SDS011;5001;51.674;7.868;2023-04-21T14:11:03;18.25;;;14.77;;
9924;SDS011;5001;51.674;7.868;2023-04-21T14:13:31;14.38;;;12.88;;
9924;SDS011;5001;51.674;7.868;2023-04-21T14:16:10;13.70;;;12.27;;
9924;SDS011;5001;51.674;7.868;2023-04-21T14:18:37;14.45;;;11.65;;
9924;SDS011;5001;51.674;7.868;2023-04-21T14:21:10;15.57;;;12.60;;
9924;SDS011;5001;51.674;7.868;2023-04-21T14:23:37;15.13;;;11.27;;
9924;SDS011;5001;51.674;7.868;2023-04-21T14:26:04;20.33;;;11.02;;
9924;SDS011;5001;51.674;7.868;2023-04-21T14:28:31;15.10;;;11.25;;
9924;SDS011;5001;51.674;7.868;2023-04-21T14:30:58;16.38;;;10.98;;
9924;SDS011;5001;51.674;7.868;2023-04-21T14:33:25;14.45;;;10.00;;
9924;SDS011;5001;51.674;7.868;2023-04-21T14:35:52;14.00;;;11.35;;
9924;SDS011;5001;51.674;7.868;2023-04-21T14:38:19;16.30;;;10.65;;
9924;SDS011;5001;51.674;7.868;2023-04-21T14:40:46;13.13;;;11.30;;
9924;SDS011;5001;51.674;7.868;2023-04-21T14:43:15;13.38;;;8.90;;
9924;SDS011;5001;51.674;7.868;2023-04-21T14:45:42;12.13;;;9.60;;
9924;SDS011;5001;51.674;7.868;2023-04-21T14:48:09;17.42;;;9.80;;
9924;SDS011;5001;51.674;7.868;2023-04-21T14:50:39;17.33;;;9.68;;
9924;SDS011;5001;51.674;7.868;2023-04-21T14:53:06;10.23;;;8.27;;
9924;SDS011;5001;51.674;7.868;2023-04-21T14:55:34;9.45;;;8.40;;
9924;SDS011;5001;51.674;7.868;2023-04-21T14:58:01;10.35;;;7.70;;
9924;SDS011;5001;51.674;7.868;2023-04-21T15:00:28;10.50;;;8.88;;
9924;SDS011;5001;51.674;7.868;2023-04-21T15:02:57;11.52;;;7.80;;
9924;SDS011;5001;51.674;7.868;2023-04-21T15:05:24;11.30;;;8.60;;
9924;SDS011;5001;51.674;7.868;2023-04-21T15:07:51;12.20;;;8.30;;
9924;SDS011;5001;51.674;7.868;2023-04-21T15:10:18;13.18;;;8.50;;
9924;SDS011;5001;51.674;7.868;2023-04-21T15:12:45;12.68;;;7.80;;